Time;durP1;ratioP1;P1;durP2;ratioP2;P2;SDS_P1;SDS_P2;PMS_P1;PMS_P2;Temp;Humidity;BMP_temperature;BMP_pressure;BME280_temperature;BME280_humidity;BME280_pressure;Samples;Min_cycle;Max_cycle;Signal;HPM_P1;HPM_P2
2022/05/25 00:01:23;;;;;;;0.83;0.70;;;;;;;-145.69;100.00;71440.19;5073734;28;20199;-78
2022/05/25 00:03:50;;;;;;;2.00;0.90;;;;;;;-145.69;100.00;71442.19;5073720;28;20203;-78
2022/05/25 00:06:17;;;;;;;2.63;0.70;;;;;;;-145.69;100.00;71434.22;5073243;28;20194;-77
2022/05/25 00:08:44;;;;;;;2.73;1.00;;;;;;;-145.69;100.00;71430.25;5073017;28;20678;-78
2022/05/25 00:11:11;;;;;;;4.40;1.00;;;;;;;-145.69;100.00;71434.22;5073088;28;20569;-78
2022/05/25 00:13:39;;;;;;;1.70;0.80;;;;;;;-145.69;100.00;71438.22;5073540;28;20600;-78
2022/05/25 00:16:08;;;;;;;3.30;0.93;;;;;;;-145.69;100.00;71446.16;5073433;28;20252;-78
2022/05/25 00:18:34;;;;;;;0.80;0.80;;;;;;;-145.69;100.00;71446.16;5073392;28;20207;-79
2022/05/25 00:21:00;;;;;;;1.00;0.90;;;;;;;-145.69;100.00;71446.16;5073377;28;20225;-78
2022/05/25 00:23:27;;;;;;;1.37;0.93;;;;;;;-145.69;100.00;71450.16;5073274;28;20729;-78
2022/05/25 00:25:54;;;;;;;1.23;0.75;;;;;;;-145.69;100.00;71454.13;5072519;28;20495;-78
2022/05/25 00:28:20;;;;;;;1.40;0.90;;;;;;;-145.69;100.00;71462.09;5073205;28;20652;-78
2022/05/25 00:30:48;;;;;;;2.80;1.30;;;;;;;-145.69;100.00;71482.00;5072744;28;20252;-78
2022/05/25 00:33:14;;;;;;;0.97;0.83;;;;;;;-145.69;100.00;71476.03;5073179;28;20202;-78
2022/05/25 00:35:42;;;;;;;1.20;0.80;;;;;;;-145.69;100.00;71480.00;5073062;28;20205;-78
2022/05/25 00:38:10;;;;;;;0.90;0.77;;;;;;;-145.69;100.00;71474.03;5073213;28;20206;-78
2022/05/25 00:40:40;;;;;;;3.00;0.73;;;;;;;-145.69;100.00;71462.09;5073206;28;20206;-77
2022/05/25 00:43:07;;;;;;;6.20;0.87;;;;;;;-145.69;100.00;71454.13;5072912;28;20581;-77
2022/05/25 00:45:39;;;;;;;1.13;0.97;;;;;;;-145.69;100.00;71456.13;5073015;28;20570;-77
2022/05/25 00:48:10;;;;;;;2.47;0.83;;;;;;;-145.69;100.00;71456.13;5072942;28;20202;-78
2022/05/25 00:53:17;;;;;;;0.80;0.80;;;;;;;-145.69;100.00;71474.03;5072271;28;20290;-78
2022/05/25 00:55:45;;;;;;;1.50;0.93;;;;;;;-145.69;100.00;71478.00;5072893;28;20206;-78
2022/05/25 00:58:11;;;;;;;3.23;0.90;;;;;;;-145.69;100.00;71478.00;5072841;28;20202;-77
2022/05/25 01:00:38;;;;;;;0.87;0.73;;;;;;;-145.69;100.00;71483.97;5072784;28;20203;-77
2022/05/25 01:03:08;;;;;;;0.73;0.63;;;;;;;-145.69;100.00;71482.00;5072986;28;20203;-78
2022/05/25 01:05:46;;;;;;;4.37;1.00;;;;;;;-145.69;100.00;71493.94;5072779;28;20722;-77
2022/05/25 01:08:24;;;;;;;0.83;0.80;;;;;;;-145.69;100.00;71491.94;5076808;28;20651;-78
2022/05/25 01:11:03;;;;;;;1.20;0.93;;;;;;;-145.69;100.00;71491.94;5076842;28;20226;-77
2022/05/25 01:13:37;;;;;;;1.50;1.03;;;;;;;-145.69;100.00;71489.94;5076784;28;20538;-78
2022/05/25 01:16:13;;;;;;;1.77;1.00;;;;;;;-145.69;100.00;71482.00;5077023;28;20292;-78
2022/05/25 01:18:49;;;;;;;2.17;1.07;;;;;;;-145.69;100.00;71478.00;5076643;28;20198;-78
2022/05/25 01:21:23;;;;;;;2.23;1.10;;;;;;;-145.69;100.00;71474.03;5076781;28;20206;-78
2022/05/25 01:24:00;;;;;;;1.70;0.90;;;;;;;-145.69;100.00;71468.06;5076466;28;20234;-78
2022/05/25 01:26:57;;;;;;;2.90;0.97;;;;;;;-145.69;100.00;71476.03;5076610;28;20213;-78
2022/05/25 01:29:45;;;;;;;1.90;0.80;;;;;;;-145.69;100.00;71478.00;5076492;28;20222;-78
2022/05/25 01:32:15;;;;;;;1.00;0.90;;;;;;;-145.69;100.00;71487.97;5076464;28;20232;-78
2022/05/25 01:34:47;;;;;;;2.40;0.87;;;;;;;-145.69;100.00;71489.94;5076606;28;20214;-78
2022/05/25 01:37:17;;;;;;;4.67;1.20;;;;;;;-145.69;100.00;71491.94;5076025;28;20199;-77
2022/05/25 01:39:53;;;;;;;3.10;0.73;;;;;;;-145.69;100.00;71497.91;5076471;28;20210;-78
2022/05/25 01:42:25;;;;;;;1.83;0.77;;;;;;;-145.69;100.00;71497.91;5076316;28;20552;-78
2022/05/25 01:44:58;;;;;;;1.00;0.90;;;;;;;-145.69;100.00;71495.91;5076119;28;20202;-78
2022/05/25 01:47:28;;;;;;;2.77;1.20;;;;;;;-145.69;100.00;71491.94;5076298;28;20539;-78
2022/05/25 01:49:57;;;;;;;1.47;1.10;;;;;;;-145.69;100.00;71493.94;5076203;28;20249;-78
2022/05/25 01:52:29;;;;;;;1.63;1.30;;;;;;;-145.69;100.00;71501.88;5075879;28;20206;-78
2022/05/25 01:54:57;;;;;;;1.33;1.08;;;;;;;-145.69;100.00;71497.91;5073877;28;20442;-78
2022/05/25 01:57:27;;;;;;;3.40;1.00;;;;;;;-145.69;100.00;71501.88;5073509;28;20198;-78
2022/05/25 01:59:55;;;;;;;2.77;1.17;;;;;;;-145.69;100.00;71499.91;5075967;28;20205;-78
2022/05/25 02:05:10;;;;;;;1.90;1.30;;;;;;;-145.69;100.00;71497.91;5075943;28;20542;-78
2022/05/25 02:07:59;;;;;;;4.47;0.90;;;;;;;-145.69;100.00;71505.88;5075995;28;20199;-78
2022/05/25 02:10:37;;;;;;;0.83;0.83;;;;;;;-145.69;100.00;71507.84;5075239;28;20223;-78
2022/05/25 02:13:26;;;;;;;1.10;1.00;;;;;;;-145.69;100.00;71511.84;5075982;28;20199;-78
2022/05/25 02:16:06;;;;;;;1.50;1.00;;;;;;;-145.69;100.00;71513.81;5075549;28;20198;-78
2022/05/25 02:18:37;;;;;;;1.67;1.23;;;;;;;-145.69;100.00;71507.84;5075725;28;20236;-78
2022/05/25 02:21:09;;;;;;;5.10;0.93;;;;;;;-145.69;100.00;71505.88;5075239;28;20688;-78
2022/05/25 02:23:43;;;;;;;1.10;1.00;;;;;;;-145.69;100.00;71507.84;5075301;28;20277;-77
2022/05/25 02:26:16;;;;;;;1.53;1.10;;;;;;;-145.69;100.00;71513.81;5075212;28;20207;-78
2022/05/25 02:28:46;;;;;;;1.27;1.10;;;;;;;-145.69;100.00;71517.81;5075457;28;20298;-78
2022/05/25 02:31:19;;;;;;;2.70;0.97;;;;;;;-145.69;100.00;71519.81;5075568;28;20233;-78
2022/05/25 02:33:50;;;;;;;1.60;1.27;;;;;;;-145.69;100.00;71515.81;5075232;28;20209;-78
2022/05/25 02:36:18;;;;;;;3.20;0.97;;;;;;;-145.69;100.00;71517.81;5075291;28;20240;-78
2022/05/25 02:38:45;;;;;;;1.63;1.07;;;;;;;-145.69;100.00;71513.81;5075701;28;20214;-78
2022/05/25 02:41:14;;;;;;;2.10;1.00;;;;;;;-145.69;100.00;71525.78;5075175;28;20199;-78
2022/05/25 02:43:41;;;;;;;1.20;1.10;;;;;;;-145.69;100.00;71535.72;5074865;28;20202;-77
2022/05/25 02:46:09;;;;;;;0.80;0.80;;;;;;;-145.69;100.00;71541.69;5075320;28;20203;-78
2022/05/25 02:48:37;;;;;;;1.03;1.00;;;;;;;-145.69;100.00;71545.66;5075164;28;20203;-78
2022/05/25 02:51:04;;;;;;;3.80;0.97;;;;;;;-145.69;100.00;71555.63;5074216;28;20716;-78
2022/05/25 02:53:30;;;;;;;3.03;0.87;;;;;;;-145.69;100.00;71557.59;5075186;28;20612;-78
2022/05/25 02:55:57;;;;;;;2.40;1.07;;;;;;;-145.69;100.00;71553.63;5074964;28;20657;-78
2022/05/25 02:58:24;;;;;;;6.23;1.23;;;;;;;-145.69;100.00;71557.59;5074615;28;20202;-78
2022/05/25 03:00:50;;;;;;;2.60;0.80;;;;;;;-145.69;100.00;71551.63;5074870;28;20201;-77
2022/05/25 03:03:17;;;;;;;1.00;0.90;;;;;;;-145.69;100.00;71547.66;5074762;28;20199;-78
2022/05/25 03:05:44;;;;;;;2.00;1.00;;;;;;;-145.69;100.00;71551.63;5074629;28;20199;-78
2022/05/25 03:08:11;;;;;;;3.03;1.00;;;;;;;-145.69;100.00;71549.66;5073969;28;20491;-78
2022/05/25 03:10:37;;;;;;;2.03;1.03;;;;;;;-145.69;100.00;71545.66;5074153;28;20234;-78
2022/05/25 03:13:05;;;;;;;1.07;0.90;;;;;;;-145.69;100.00;71545.66;5074728;28;20198;-78
2022/05/25 03:15:32;;;;;;;2.13;1.00;;;;;;;-145.69;100.00;71543.69;5074609;28;20195;-78
2022/05/25 03:17:58;;;;;;;2.50;1.20;;;;;;;-145.69;100.00;71547.66;5074080;28;20202;-78
2022/05/25 03:20:25;;;;;;;2.50;1.03;;;;;;;-145.69;100.00;71553.63;5074372;28;20206;-78
2022/05/25 03:22:53;;;;;;;2.30;1.10;;;;;;;-145.69;100.00;71547.66;5074291;28;20652;-78
2022/05/25 03:25:20;;;;;;;3.53;1.03;;;;;;;-145.69;100.00;71551.63;5074152;28;20254;-78
2022/05/25 03:27:46;;;;;;;1.10;1.00;;;;;;;-145.69;100.00;71559.59;5074042;28;20243;-78
2022/05/25 03:30:15;;;;;;;1.57;1.27;;;;;;;-145.69;100.00;71565.56;5073969;28;20226;-78
2022/05/25 03:32:42;;;;;;;1.63;1.03;;;;;;;-145.69;100.00;71577.50;5073763;28;20652;-78
2022/05/25 03:35:10;;;;;;;1.00;0.90;;;;;;;-145.69;100.00;71589.44;5074192;28;20294;-79
2022/05/25 03:37:36;;;;;;;1.73;1.20;;;;;;;-145.69;100.00;71593.44;5073600;28;20245;-78
2022/05/25 03:40:06;;;;;;;2.90;0.80;;;;;;;-145.69;100.00;71605.38;5074241;28;20731;-78
2022/05/25 03:42:32;;;;;;;1.25;1.10;;;;;;;-145.69;100.00;71607.34;5073244;28;20434;-78
2022/05/25 03:44:59;;;;;;;2.37;1.10;;;;;;;-145.69;100.00;71617.31;5073580;28;20260;-78
2022/05/25 03:47:25;;;;;;;1.47;1.00;;;;;;;-145.69;100.00;71617.31;5073772;28;20650;-78
2022/05/25 03:49:52;;;;;;;3.43;1.30;;;;;;;-145.69;100.00;71621.28;5074200;28;20272;-78
2022/05/25 03:52:21;;;;;;;2.60;1.00;;;;;;;-145.69;100.00;71625.25;5073831;28;20290;-78
2022/05/25 03:54:48;;;;;;;2.77;1.77;;;;;;;-145.69;100.00;71627.25;5073317;28;20203;-78
2022/05/25 03:57:16;;;;;;;1.87;1.20;;;;;;;-145.69;100.00;71635.22;5073899;28;20616;-78
2022/05/25 03:59:42;;;;;;;2.43;1.10;;;;;;;-145.69;100.00;71633.22;5073665;28;20612;-78
2022/05/25 04:02:09;;;;;;;3.03;1.57;;;;;;;-145.69;100.00;71629.25;5065587;28;20207;-78
2022/05/25 04:04:35;;;;;;;3.50;1.40;;;;;;;-145.69;100.00;71637.19;5053221;28;20199;-78
2022/05/25 04:07:02;;;;;;;1.33;1.10;;;;;;;-145.69;100.00;71629.25;5053708;28;20195;-77
2022/05/25 04:09:28;;;;;;;2.40;1.00;;;;;;;-145.69;100.00;71629.25;5053750;28;20199;-78
2022/05/25 04:11:55;;;;;;;3.40;1.00;;;;;;;-145.69;100.00;71633.22;5053012;28;20231;-78
2022/05/25 04:14:23;;;;;;;1.87;0.80;;;;;;;-145.69;100.00;71641.19;5053391;28;20210;-77
2022/05/25 04:16:50;;;;;;;4.00;1.00;;;;;;;-145.69;100.00;71649.16;5053579;28;20203;-77
2022/05/25 04:19:17;;;;;;;2.30;0.90;;;;;;;-145.69;100.00;71643.19;5053465;28;20226;-77
2022/05/25 04:21:44;;;;;;;2.73;1.00;;;;;;;-145.69;100.00;71653.13;5053234;28;20543;-78
2022/05/25 04:24:12;;;;;;;2.17;1.10;;;;;;;-145.69;100.00;71657.09;5053280;28;20285;-77
2022/05/25 04:26:39;;;;;;;1.40;1.07;;;;;;;-145.69;100.00;71649.16;5053222;28;20207;-78
2022/05/25 04:29:05;;;;;;;1.33;1.10;;;;;;;-145.69;100.00;71645.16;5053175;28;20199;-78
2022/05/25 04:31:33;;;;;;;0.90;0.90;;;;;;;-145.69;100.00;71657.09;5053288;28;20222;-77
2022/05/25 04:34:00;;;;;;;3.03;1.00;;;;;;;-145.69;100.00;71649.16;5053032;28;20199;-78
2022/05/25 04:36:26;;;;;;;3.53;1.00;;;;;;;-145.69;100.00;71645.16;5053283;28;20211;-77
2022/05/25 04:38:53;;;;;;;3.20;1.03;;;;;;;-145.69;100.00;71643.19;5053354;28;20207;-78
2022/05/25 04:41:19;;;;;;;1.17;1.07;;;;;;;-145.69;100.00;71645.16;5052355;28;20535;-78
2022/05/25 04:43:45;;;;;;;2.17;0.90;;;;;;;-145.69;100.00;71653.13;5052941;28;20545;-77
2022/05/25 04:46:13;;;;;;;1.33;0.90;;;;;;;-145.69;100.00;71645.16;5053395;28;20203;-77
2022/05/25 04:48:41;;;;;;;1.60;0.90;;;;;;;-145.69;100.00;71641.19;5053044;28;20206;-77
2022/05/25 04:51:07;;;;;;;5.40;1.07;;;;;;;-145.69;100.00;71643.19;5052914;28;20288;-77
2022/05/25 04:53:34;;;;;;;1.27;0.97;;;;;;;-145.69;100.00;71629.25;5052781;28;20207;-77
2022/05/25 04:58:47;;;;;;;1.17;0.70;;;;;;;-145.69;100.00;71625.25;5053926;28;20195;-77
2022/05/25 05:01:17;;;;;;;1.17;0.90;;;;;;;-145.69;100.00;71613.31;5073042;28;20565;-77
2022/05/25 05:03:45;;;;;;;2.20;0.80;;;;;;;-145.69;100.00;71605.38;5073303;28;20289;-77
2022/05/25 05:06:12;;;;;;;1.83;0.77;;;;;;;-145.69;100.00;71593.44;5072902;28;20556;-78
2022/05/25 05:08:39;;;;;;;0.70;0.70;;;;;;;-145.69;100.00;71583.47;5072756;28;20202;-78
2022/05/25 05:11:09;;;;;;;0.80;0.80;;;;;;;-145.69;100.00;71565.56;5072912;28;20233;-78
2022/05/25 05:13:36;;;;;;;1.90;0.97;;;;;;;-145.69;100.00;71569.53;5073388;28;20194;-77
2022/05/25 05:16:06;;;;;;;2.30;0.67;;;;;;;-145.69;100.00;71555.63;5072924;28;20277;-78
2022/05/25 05:18:32;;;;;;;2.00;0.70;;;;;;;-145.69;100.00;71533.72;5072789;28;20240;-78
2022/05/25 05:21:00;;;;;;;1.60;0.83;;;;;;;-145.69;100.00;71511.84;5072735;28;20256;-78
2022/05/25 05:23:27;;;;;;;1.30;0.70;;;;;;;-145.69;100.00;71509.84;5071681;28;20442;-78
2022/05/25 05:25:53;;;;;;;2.00;0.90;;;;;;;-145.69;100.00;71501.88;5072975;28;20222;-78
2022/05/25 05:28:23;;;;;;;0.60;0.60;;;;;;;-145.69;100.00;71478.00;5072806;28;20202;-78
2022/05/25 05:30:51;;;;;;;0.88;0.70;;;;;;;-145.69;100.00;71489.94;5072617;28;20227;-77
2022/05/25 05:33:18;;;;;;;1.13;0.80;;;;;;;-145.69;100.00;71476.03;5072640;28;20214;-77
2022/05/25 05:35:47;;;;;;;0.57;0.57;;;;;;;-145.69;100.00;71460.09;5072447;28;20203;-77
2022/05/25 05:38:17;;;;;;;0.77;0.60;;;;;;;-145.69;100.00;71394.44;5072732;28;20570;-78
2022/05/25 05:40:44;;;;;;;1.60;0.57;;;;;;;-145.69;100.00;71360.59;5072742;28;20199;-78
2022/05/25 05:43:12;;;;;;;0.55;0.55;;;;;;;-145.69;98.92;71251.16;5072972;28;20600;-78
2022/05/25 05:45:43;;;;;;;2.45;0.70;;;;;;;-145.69;82.81;71211.38;5072623;28;20607;-78
2022/05/25 05:48:14;;;;;;;0.50;0.50;;;;;;;-145.69;76.47;71032.28;5072431;28;20596;-78
2022/05/25 05:50:42;;;;;;;0.60;0.60;;;;;;;-145.69;75.13;71090.00;5072370;28;20692;-78
2022/05/25 05:53:11;;;;;;;3.20;1.00;;;;;;;-145.69;79.48;71127.81;5074644;28;20567;-78
2022/05/25 05:55:41;;;;;;;3.38;0.45;;;;;;;-145.69;76.21;71072.09;5076392;28;20293;-78
2022/05/25 05:58:08;;;;;;;0.63;0.40;;;;;;;-145.69;69.74;71028.31;5076021;28;20295;-78
2022/05/25 06:00:34;;;;;;;3.58;0.80;;;;;;;-145.69;72.17;71119.84;5075925;28;20213;-78
2022/05/25 06:03:01;;;;;;;3.17;0.88;;;;;;;-145.69;73.29;71251.16;5075944;28;20206;-79
2022/05/25 06:05:29;;;;;;;0.47;0.47;;;;;;;-145.69;75.73;71257.13;5076037;28;20199;-78
2022/05/25 06:07:55;;;;;;;1.70;0.50;;;;;;;-145.69;74.80;71271.06;5075744;28;20600;-78
2022/05/25 06:10:22;;;;;;;0.70;0.50;;;;;;;-145.69;77.13;71338.72;5071160;28;20190;-78
2022/05/25 06:12:50;;;;;;;1.55;0.60;;;;;;;-145.69;77.59;71352.66;5055833;28;20203;-78
2022/05/25 06:20:48;;;;;;;3.83;0.60;;;;;;;-145.69;83.56;71412.34;5055711;28;20202;-78
2022/05/25 06:23:14;;;;;;;1.58;0.70;;;;;;;-145.69;79.12;71414.34;5055473;28;20245;-77
2022/05/25 06:25:41;;;;;;;0.85;0.85;;;;;;;-145.69;79.35;71386.47;5055186;28;20206;-78
2022/05/25 06:28:09;;;;;;;0.57;0.45;;;;;;;-145.69;76.19;71342.69;5055559;28;20199;-77
2022/05/25 06:30:35;;;;;;;1.50;0.60;;;;;;;-145.69;73.25;71338.72;5055501;28;20196;-77
2022/05/25 06:33:04;;;;;;;1.83;0.60;;;;;;;-145.69;71.23;71318.81;5055544;28;20210;-77
2022/05/25 06:35:31;;;;;;;2.95;0.40;;;;;;;-145.69;73.82;71344.69;5055072;28;20667;-78
2022/05/25 06:37:57;;;;;;;4.68;0.57;;;;;;;-145.69;70.97;71336.72;5055336;28;20225;-77
2022/05/25 06:40:23;;;;;;;1.05;0.55;;;;;;;-145.69;72.70;71376.53;5055186;28;20261;-79
2022/05/25 06:42:51;;;;;;;2.47;0.65;;;;;;;-145.69;71.77;71354.63;5055129;28;20593;-79
2022/05/25 06:45:19;;;;;;;1.65;0.65;;;;;;;-145.69;72.07;71340.72;5055389;28;20207;-80
2022/05/25 06:47:46;;;;;;;2.25;0.60;;;;;;;-145.69;67.90;71267.09;5055218;28;20211;-79
2022/05/25 06:50:12;;;;;;;0.93;0.50;;;;;;;-145.69;68.80;71294.94;5054058;28;20261;-79
2022/05/25 06:52:39;;;;;;;1.20;0.50;;;;;;;-145.69;67.51;71209.38;5054902;28;20223;-79
2022/05/25 06:55:07;;;;;;;0.70;0.65;;;;;;;-145.69;64.90;71143.72;5055135;28;20265;-79
2022/05/25 06:57:33;;;;;;;1.77;0.60;;;;;;;-145.69;62.91;71271.06;5055136;28;20225;-78
2022/05/25 07:00:00;;;;;;;2.05;0.57;;;;;;;-145.69;62.79;71211.38;5066487;28;20245;-78
2022/05/25 07:02:28;;;;;;;1.35;0.40;;;;;;;-145.69;57.28;71165.59;5074845;28;20596;-78
2022/05/25 07:04:55;;;;;;;1.38;0.40;;;;;;;-145.69;60.43;71203.41;5073908;28;20600;-79
2022/05/25 07:07:22;;;;;;;0.82;0.40;;;;;;;-145.69;58.79;71167.59;5074653;28;20218;-79
2022/05/25 07:09:49;;;;;;;2.30;0.47;;;;;;;-145.69;61.08;71135.75;5074862;28;20203;-79
2022/05/25 07:12:16;;;;;;;1.10;0.50;;;;;;;-145.69;60.09;71119.84;5074155;28;20238;-78
2022/05/25 07:14:42;;;;;;;2.05;0.50;;;;;;;-145.69;61.67;71123.81;5074742;28;20198;-79
2022/05/25 07:17:09;;;;;;;1.55;0.40;;;;;;;-145.69;60.41;71147.69;5074341;28;20596;-78
2022/05/25 07:19:37;;;;;;;2.83;0.43;;;;;;;-145.69;64.49;71066.13;5074366;28;20194;-79
2022/05/25 07:22:08;;;;;;;0.30;0.30;;;;;;;-145.69;59.41;71080.06;5074643;28;20217;-79
2022/05/25 07:24:34;;;;;;;0.73;0.47;;;;;;;-145.69;59.74;70990.50;5074305;28;20238;-79
2022/05/25 07:27:01;;;;;;;1.00;0.60;;;;;;;-145.69;61.02;70962.66;5074379;28;20719;-79
2022/05/25 07:29:27;;;;;;;0.50;0.50;;;;;;;-145.69;57.40;70976.59;5074084;28;20613;-79
2022/05/25 07:32:01;;;;;;;0.90;0.77;;;;;;;-145.69;60.59;70960.66;5073798;28;20689;-79
2022/05/25 07:34:31;;;;;;;0.63;0.40;;;;;;;-145.69;57.96;70936.78;5074290;28;20203;-79
2022/05/25 07:37:03;;;;;;;1.08;0.50;;;;;;;-145.69;56.71;71026.31;5074113;28;20202;-78
2022/05/25 07:39:33;;;;;;;2.45;0.70;;;;;;;-145.69;63.50;70944.75;5074206;28;20702;-79
2022/05/25 07:42:03;;;;;;;3.17;0.63;;;;;;;-145.69;59.23;70900.97;5074189;28;20202;-79
2022/05/25 07:44:33;;;;;;;1.90;0.50;;;;;;;-145.69;55.85;70920.88;5073859;28;20315;-79
2022/05/25 07:46:59;;;;;;;3.30;0.50;;;;;;;-145.69;56.82;70980.56;5073876;28;20210;-83
2022/05/25 07:49:26;;;;;;;2.83;0.50;;;;;;;-145.69;62.73;71068.13;5073883;28;20206;-81
2022/05/25 07:51:53;;;;;;;1.17;0.40;;;;;;;-145.69;61.49;71070.09;5073669;28;20581;-81
2022/05/25 07:54:22;;;;;;;0.30;0.30;;;;;;;-145.69;63.55;71070.09;5073927;28;20569;-79
2022/05/25 07:56:48;;;;;;;1.90;0.50;;;;;;;-145.69;61.68;71147.69;5073751;28;20213;-78
2022/05/25 07:59:16;;;;;;;2.17;0.40;;;;;;;-145.69;58.81;71191.47;5073422;28;20199;-78
2022/05/25 08:07:20;;;;;;;0.40;0.40;;;;;;;-145.69;63.42;71099.94;5073585;28;20201;-78
2022/05/25 08:09:48;;;;;;;0.82;0.50;;;;;;;-145.69;60.24;71097.97;5057090;28;20196;-78
2022/05/25 08:12:15;;;;;;;1.00;0.60;;;;;;;-145.69;60.25;71084.03;5053583;28;20231;-77
2022/05/25 08:14:42;;;;;;;2.72;0.43;;;;;;;-145.69;60.99;71054.19;5053141;28;20290;-77
2022/05/25 08:17:08;;;;;;;2.03;0.57;;;;;;;-145.69;60.77;71056.16;5053250;28;20211;-76
2022/05/25 08:19:35;;;;;;;1.13;0.60;;;;;;;-145.69;61.81;71151.69;5053359;28;20206;-78
2022/05/25 08:22:02;;;;;;;0.40;0.40;;;;;;;-145.69;62.15;71127.81;5054406;28;20211;-78
2022/05/25 08:24:30;;;;;;;1.90;0.57;;;;;;;-145.69;61.46;71147.69;5052776;28;20231;-77
2022/05/25 08:26:58;;;;;;;1.38;0.60;;;;;;;-145.69;64.11;71187.50;5053313;28;20199;-76
2022/05/25 08:29:25;;;;;;;2.65;0.55;;;;;;;-145.69;64.25;71187.50;5053343;28;20203;-78
2022/05/25 08:31:53;;;;;;;2.17;0.63;;;;;;;-145.69;64.39;71177.53;5053157;28;20228;-77
2022/05/25 08:34:19;;;;;;;4.35;0.88;;;;;;;-145.69;65.97;71125.81;5053141;28;20203;-78
2022/05/25 08:36:46;;;;;;;2.20;0.70;;;;;;;-145.69;64.04;71050.22;5053069;28;20203;-77
2022/05/25 08:39:12;;;;;;;2.60;0.70;;;;;;;-145.69;58.78;71004.44;5052965;28;20204;-77
2022/05/25 08:41:40;;;;;;;1.73;0.70;;;;;;;-145.69;64.24;70992.50;5053030;28;20211;-78
2022/05/25 08:44:10;;;;;;;3.78;0.98;;;;;;;-145.69;63.85;70954.69;5053144;28;20206;-78
2022/05/25 08:46:36;;;;;;;3.22;0.70;;;;;;;-145.69;61.67;70994.50;5052963;28;20242;-79
2022/05/25 08:49:07;;;;;;;1.65;0.80;;;;;;;-145.69;58.09;70996.47;5063197;28;20198;-78
2022/05/25 08:51:41;;;;;;;1.58;0.70;;;;;;;-145.69;59.16;70916.91;5058774;28;20230;-77
2022/05/25 08:54:09;;;;;;;0.68;0.55;;;;;;;-145.69;57.03;70940.78;5053051;28;20199;-78
2022/05/25 08:56:40;;;;;;;3.10;0.90;;;;;;;-145.69;55.29;70950.72;5052977;28;20199;-79
2022/05/25 08:59:13;;;;;;;1.45;0.60;;;;;;;-145.69;55.66;70920.88;5056887;28;20695;-77
2022/05/25 09:01:44;;;;;;;5.35;0.50;;;;;;;-145.69;56.74;70825.38;5072801;28;20210;-79
2022/05/25 09:04:22;;;;;;;1.15;0.50;;;;;;;-145.69;53.08;70729.88;5072744;28;20248;-79
2022/05/25 09:06:55;;;;;;;1.08;0.65;;;;;;;-145.69;56.61;70682.13;5072965;28;20203;-82
2022/05/25 09:09:31;;;;;;;1.35;0.60;;;;;;;-145.69;51.84;70717.94;5072891;28;20206;-79
2022/05/25 09:12:03;;;;;;;3.50;0.70;;;;;;;-145.69;51.08;70791.56;5072551;28;20313;-79
2022/05/25 09:14:35;;;;;;;5.25;0.60;;;;;;;-145.69;54.03;70735.84;5072610;28;20198;-79
2022/05/25 09:17:07;;;;;;;1.17;0.40;;;;;;;-145.69;56.92;70885.06;5072746;28;20201;-79
2022/05/25 09:19:38;;;;;;;0.82;0.60;;;;;;;-145.69;53.98;70908.94;5072846;28;20202;-78
2022/05/25 09:22:08;;;;;;;1.90;0.68;;;;;;;-145.69;57.09;71040.25;5072257;28;20449;-79
2022/05/25 09:24:36;;;;;;;2.13;0.93;;;;;;;-145.69;54.67;71004.44;5072449;28;20234;-78
2022/05/25 09:27:05;;;;;;;2.63;0.77;;;;;;;-145.69;58.19;71022.34;5073095;28;20276;-77
2022/05/25 09:29:33;;;;;;;2.08;0.80;;;;;;;-145.69;56.53;71048.22;5076671;28;20209;-78
2022/05/25 09:32:11;;;;;;;2.35;0.75;;;;;;;-145.69;57.17;70992.50;5076365;28;20230;-79
2022/05/25 09:34:44;;;;;;;1.38;0.40;;;;;;;-145.69;56.19;71010.41;5076417;28;20676;-77
2022/05/25 09:37:17;;;;;;;1.73;0.70;;;;;;;-145.69;58.05;71048.22;5076337;28;20203;-78
2022/05/25 09:39:45;;;;;;;2.00;0.65;;;;;;;-145.69;58.38;71014.38;5075958;28;20672;-77
2022/05/25 09:42:19;;;;;;;2.35;0.70;;;;;;;-145.69;56.77;70970.63;5076422;28;20260;-78
2022/05/25 09:44:52;;;;;;;0.63;0.40;;;;;;;-145.69;59.29;70881.09;5076406;28;20202;-79
2022/05/25 09:47:23;;;;;;;0.98;0.57;;;;;;;-145.69;57.67;70906.94;5076595;28;20202;-78
2022/05/25 09:49:52;;;;;;;1.02;0.50;;;;;;;-145.69;59.56;70861.19;5076223;28;20256;-79
2022/05/25 09:52:22;;;;;;;2.58;0.60;;;;;;;-145.69;56.03;70805.47;5076224;28;20280;-78
2022/05/25 09:54:56;;;;;;;0.45;0.40;;;;;;;-145.69;51.36;70745.78;5076367;28;20210;-78
2022/05/25 09:57:28;;;;;;;1.27;0.60;;;;;;;-145.69;47.20;70719.94;5075692;28;20826;-78
2022/05/25 10:00:03;;;;;;;0.80;0.30;;;;;;;-145.69;50.38;70755.75;5075775;28;20195;-78
2022/05/25 10:02:35;;;;;;;0.95;0.60;;;;;;;-145.69;46.92;70733.84;5073622;28;20346;-79
2022/05/25 10:05:14;;;;;;;2.80;0.50;;;;;;;-145.69;48.48;70797.53;5055786;28;20246;-76
2022/05/25 10:07:51;;;;;;;0.40;0.40;;;;;;;-145.69;51.05;70741.81;5055813;28;20609;-77
2022/05/25 10:10:25;;;;;;;3.97;0.80;;;;;;;-145.69;47.20;70761.72;5055720;28;20203;-78
2022/05/25 10:13:00;;;;;;;2.05;0.70;;;;;;;-145.69;48.36;70773.66;5055645;28;20313;-79
2022/05/25 10:15:33;;;;;;;3.00;0.82;;;;;;;-145.69;46.51;70841.28;5055769;28;20301;-79
2022/05/25 10:18:00;;;;;;;1.27;0.60;;;;;;;-145.69;47.45;70906.94;5055819;28;20199;-79
2022/05/25 10:20:30;;;;;;;1.05;0.50;;;;;;;-145.69;47.58;70877.09;5055620;28;20207;-79
2022/05/25 10:23:09;;;;;;;1.25;0.30;;;;;;;-145.69;48.09;70781.59;5055542;28;20650;-79
2022/05/25 10:25:41;;;;;;;1.38;0.60;;;;;;;-145.69;47.27;70857.22;5055617;28;20199;-79
2022/05/25 10:28:21;;;;;;;2.67;0.75;;;;;;;-145.69;47.32;70823.38;5055535;28;20207;-78
2022/05/25 10:36:48;;;;;;;0.80;0.50;;;;;;;-145.69;50.11;70821.41;5055291;28;20238;-79
2022/05/25 10:39:21;;;;;;;2.00;0.82;;;;;;;-145.69;53.15;70801.50;5053956;28;20195;-80
2022/05/25 10:42:12;;;;;;;0.60;0.43;;;;;;;-145.69;47.57;70765.69;5054954;28;20207;-78
2022/05/25 10:44:48;;;;;;;1.30;0.50;;;;;;;-145.69;46.94;70817.41;5055270;28;20208;-78
2022/05/25 10:47:26;;;;;;;0.63;0.40;;;;;;;-145.69;45.99;70787.56;5055174;28;20203;-79
2022/05/25 10:49:53;;;;;;;0.80;0.43;;;;;;;-145.69;45.18;70781.59;5055023;28;20214;-78
2022/05/25 10:52:25;;;;;;;1.38;0.40;;;;;;;-145.69;45.58;70749.78;5054786;28;20233;-76
2022/05/25 10:54:52;;;;;;;0.95;0.43;;;;;;;-145.69;47.22;70668.19;5055019;28;20204;-78
2022/05/25 10:57:44;;;;;;;0.95;0.40;;;;;;;-145.69;45.62;70700.03;5054884;28;20196;-77
2022/05/25 11:00:14;;;;;;;0.75;0.40;;;;;;;-145.69;47.79;70717.94;5064815;28;20759;-78
2022/05/25 11:03:25;;;;;;;0.75;0.40;;;;;;;-145.69;45.63;70723.91;5074605;28;20199;-77
2022/05/25 11:06:05;;;;;;;1.42;0.50;;;;;;;-145.69;46.51;70719.94;5074816;28;20681;-79
2022/05/25 11:08:48;;;;;;;1.30;0.60;;;;;;;-145.69;45.82;70686.09;5074787;28;20210;-78
2022/05/25 11:11:24;;;;;;;0.93;0.60;;;;;;;-145.69;46.63;70721.91;5074666;28;20207;-79
2022/05/25 11:14:13;;;;;;;1.48;0.60;;;;;;;-145.69;46.97;70769.66;5074845;28;20229;-78
2022/05/25 11:16:53;;;;;;;2.28;0.80;;;;;;;-145.69;49.32;70833.34;5074057;28;20209;-77
2022/05/25 11:19:44;;;;;;;0.93;0.50;;;;;;;-145.69;50.09;70843.28;5074686;28;20198;-77
2022/05/25 11:22:34;;;;;;;1.00;0.47;;;;;;;-145.69;50.88;70789.56;5074738;28;20210;-77
2022/05/25 11:25:17;;;;;;;5.63;0.70;;;;;;;-145.69;49.07;70839.31;5074029;28;20241;-78
2022/05/25 11:27:59;;;;;;;0.60;0.45;;;;;;;-145.69;50.06;70799.50;5074283;28;20206;-78
2022/05/25 11:30:35;;;;;;;1.08;0.43;;;;;;;-145.69;48.80;70839.31;5074634;28;20217;-80
2022/05/25 11:33:14;;;;;;;0.88;0.47;;;;;;;-145.69;49.83;70777.63;5074478;28;20233;-78
2022/05/25 11:35:51;;;;;;;1.20;0.52;;;;;;;-145.69;48.67;70765.69;5074441;28;20209;-78
2022/05/25 11:38:35;;;;;;;0.90;0.55;;;;;;;-145.69;46.80;70711.97;5073209;28;20433;-77
2022/05/25 11:41:16;;;;;;;1.48;0.50;;;;;;;-145.69;49.87;70658.25;5074357;28;20232;-78
2022/05/25 11:44:04;;;;;;;2.25;0.50;;;;;;;-145.69;47.87;70690.09;5074153;28;20199;-77
2022/05/25 11:46:40;;;;;;;1.48;0.60;;;;;;;-145.69;50.44;70692.06;5073983;28;20194;-78
2022/05/25 11:49:33;;;;;;;0.45;0.43;;;;;;;-145.69;44.49;70652.28;5074173;28;20564;-79
2022/05/25 11:52:12;;;;;;;3.40;0.73;;;;;;;-145.69;45.34;70638.34;5073631;28;20248;-78
2022/05/25 11:54:52;;;;;;;5.35;0.70;;;;;;;-145.69;46.51;70678.16;5073523;28;20210;-78